Gaschem Phoenix — ELUO6 — position and weather

sailwx.info

Track history (hours):
 
Tides and Currents Weather Stations Pressure Air Temp Water Temp Dewpoint Dewpoint Depression Visibility Wind Speed Wind Dir Waves Ship Positions

Gaschem Phoenix

Last reported at 2014-Oct-01 17:32 UTC. Time now 2014-Oct-02 10:35 UTC.
Position N 35°08' E 139°45'.

Length 100 m; draft 6 m.

Type: Ship. MMSI: 636090235.

Date/timePositionNaut miles runAvg speedWind from/ knotsBaromVisibWave heightAir tempDewpointWater temp
2014-Oct-01 17:32N 35°08' E 139°45'1111.6
2014-Oct-01 16:33N 35°19' E 139°43'1110.8
2014-Oct-01 15:33N 35°28' E 139°50'1010.0
2014-Oct-01 14:32N 35°31' E 140°02'0 0.0
2014-Oct-01 03:20N 35°31' E 140°02'3 3.1
2014-Oct-01 02:31N 35°31' E 139°59'0 0.0
2014-Oct-01 00:33N 35°31' E 139°59'0 0.0
2014-Sep-30 22:29N 35°31' E 139°59'1 0.4
2014-Sep-30 20:33N 35°30' E 139°58'1211.6
2014-Sep-30 19:33N 35°24' E 139°46'1110.8
2014-Sep-30 18:34N 35°13' E 139°47'1111.1
2014-Sep-30 17:32N 35°03' E 139°42'  
2014-Sep-24 15:08N 35°04' E 139°41'5 9.1
2014-Sep-24 14:33N 35°09' E 139°45'1010.4
2014-Sep-24 13:33N 35°19' E 139°43'1010.4
2014-Sep-24 12:33N 35°28' E 139°49'1110.6
2014-Sep-24 11:32N 35°31' E 140°02'  
Track history (hours):
 
Tides and Currents Weather Stations Pressure Air Temp Water Temp Dewpoint Dewpoint Depression Visibility Wind Speed Wind Dir Waves Ship Positions

Gaschem Phoenix

Last reported at 2014-Oct-01 17:32 UTC. Time now 2014-Oct-02 10:35 UTC.
Position N 35°08' E 139°45'.

Length 100 m; draft 6 m.

Type: Ship. MMSI: 636090235.

Date/timePositionNaut miles runAvg speedWind from/ knotsBaromVisibWave heightAir tempDewpointWater temp
2014-Oct-01 17:32N 35°08' E 139°45'1111.6
2014-Oct-01 16:33N 35°19' E 139°43'1110.8
2014-Oct-01 15:33N 35°28' E 139°50'1010.0
2014-Oct-01 14:32N 35°31' E 140°02'0 0.0
2014-Oct-01 03:20N 35°31' E 140°02'3 3.1
2014-Oct-01 02:31N 35°31' E 139°59'0 0.0
2014-Oct-01 00:33N 35°31' E 139°59'0 0.0
2014-Sep-30 22:29N 35°31' E 139°59'1 0.4
2014-Sep-30 20:33N 35°30' E 139°58'1211.6
2014-Sep-30 19:33N 35°24' E 139°46'1110.8
2014-Sep-30 18:34N 35°13' E 139°47'1111.1
2014-Sep-30 17:32N 35°03' E 139°42'  
2014-Sep-24 15:08N 35°04' E 139°41'5 9.1
2014-Sep-24 14:33N 35°09' E 139°45'1010.4
2014-Sep-24 13:33N 35°19' E 139°43'1010.4
2014-Sep-24 12:33N 35°28' E 139°49'1110.6
2014-Sep-24 11:32N 35°31' E 140°02'  

Dump ship's entire track history